sensor_id;sensor_type;location;lat;lon;timestamp;P1;P2;P0
69746;PMS7003;57018;50.278;19.134;2022-12-04T00:01:11;84.00;64.00;40.50
69746;PMS7003;57018;50.278;19.134;2022-12-04T00:03:42;81.00;64.00;40.00
69746;PMS7003;57018;50.278;19.134;2022-12-04T00:06:13;86.00;64.00;42.00
69746;PMS7003;57018;50.278;19.134;2022-12-04T00:08:45;77.00;60.00;37.00
69746;PMS7003;57018;50.278;19.134;2022-12-04T00:11:16;82.00;61.00;37.00
69746;PMS7003;57018;50.278;19.134;2022-12-04T00:13:48;75.00;59.50;36.50
69746;PMS7003;57018;50.278;19.134;2022-12-04T00:16:19;82.00;63.50;41.00
69746;PMS7003;57018;50.278;19.134;2022-12-04T00:18:51;79.00;61.00;39.00
69746;PMS7003;57018;50.278;19.134;2022-12-04T00:21:21;87.00;65.00;38.00
69746;PMS7003;57018;50.278;19.134;2022-12-04T00:23:52;82.50;63.50;39.50
69746;PMS7003;57018;50.278;19.134;2022-12-04T00:26:23;82.00;61.50;39.00
69746;PMS7003;57018;50.278;19.134;2022-12-04T00:28:54;76.50;57.00;38.50
69746;PMS7003;57018;50.278;19.134;2022-12-04T00:31:25;81.00;61.00;39.00
69746;PMS7003;57018;50.278;19.134;2022-12-04T00:33:55;74.50;58.50;37.50
69746;PMS7003;57018;50.278;19.134;2022-12-04T00:36:26;74.50;58.00;36.00
69746;PMS7003;57018;50.278;19.134;2022-12-04T00:38:57;76.00;61.00;38.00
69746;PMS7003;57018;50.278;19.134;2022-12-04T00:41:28;81.33;61.67;39.33
69746;PMS7003;57018;50.278;19.134;2022-12-04T00:43:59;71.00;56.00;35.00
69746;PMS7003;57018;50.278;19.134;2022-12-04T00:46:29;79.00;60.00;37.00
69746;PMS7003;57018;50.278;19.134;2022-12-04T00:48:59;82.00;61.00;38.00
69746;PMS7003;57018;50.278;19.134;2022-12-04T00:51:29;71.00;58.00;37.00
69746;PMS7003;57018;50.278;19.134;2022-12-04T00:53:59;83.00;61.00;37.00
69746;PMS7003;57018;50.278;19.134;2022-12-04T00:56:29;74.50;57.00;35.00
69746;PMS7003;57018;50.278;19.134;2022-12-04T01:01:28;74.50;59.00;37.00
69746;PMS7003;57018;50.278;19.134;2022-12-04T01:06:27;81.50;61.50;37.50
69746;PMS7003;57018;50.278;19.134;2022-12-04T01:08:59;75.50;58.00;37.00
69746;PMS7003;57018;50.278;19.134;2022-12-04T01:11:30;73.00;57.00;37.00
69746;PMS7003;57018;50.278;19.134;2022-12-04T01:14:00;72.00;57.00;39.00
69746;PMS7003;57018;50.278;19.134;2022-12-04T01:16:32;80.00;62.00;37.00
69746;PMS7003;57018;50.278;19.134;2022-12-04T01:19:04;74.00;58.00;35.00
69746;PMS7003;57018;50.278;19.134;2022-12-04T01:21:35;74.00;58.50;37.00
69746;PMS7003;57018;50.278;19.134;2022-12-04T01:24:07;74.50;58.50;36.50
69746;PMS7003;57018;50.278;19.134;2022-12-04T01:26:37;70.00;52.50;35.00
69746;PMS7003;57018;50.278;19.134;2022-12-04T01:31:35;72.00;58.00;35.50
69746;PMS7003;57018;50.278;19.134;2022-12-04T01:34:05;74.00;59.00;37.00
69746;PMS7003;57018;50.278;19.134;2022-12-04T01:36:35;70.00;58.00;38.00
69746;PMS7003;57018;50.278;19.134;2022-12-04T01:41:33;71.50;57.50;36.00
69746;PMS7003;57018;50.278;19.134;2022-12-04T01:44:10;73.00;58.50;37.00
69746;PMS7003;57018;50.278;19.134;2022-12-04T01:46:44;76.00;61.00;37.00
69746;PMS7003;57018;50.278;19.134;2022-12-04T01:49:18;77.00;61.00;38.00
69746;PMS7003;57018;50.278;19.134;2022-12-04T01:51:53;72.00;57.00;38.00
69746;PMS7003;57018;50.278;19.134;2022-12-04T01:54:26;70.00;55.00;35.00
69746;PMS7003;57018;50.278;19.134;2022-12-04T01:57:00;75.00;57.00;38.00
69746;PMS7003;57018;50.278;19.134;2022-12-04T01:59:36;76.00;57.00;36.00
69746;PMS7003;57018;50.278;19.134;2022-12-04T02:02:11;77.00;59.00;38.00
69746;PMS7003;57018;50.278;19.134;2022-12-04T02:04:44;76.00;60.50;38.00
69746;PMS7003;57018;50.278;19.134;2022-12-04T02:07:15;68.00;54.00;31.00
69746;PMS7003;57018;50.278;19.134;2022-12-04T02:09:45;74.00;60.00;38.00
69746;PMS7003;57018;50.278;19.134;2022-12-04T02:12:23;68.00;55.00;37.00
69746;PMS7003;57018;50.278;19.134;2022-12-04T02:17:33;65.00;54.50;34.50
69746;PMS7003;57018;50.278;19.134;2022-12-04T02:20:13;75.50;59.00;37.00
69746;PMS7003;57018;50.278;19.134;2022-12-04T02:23:08;71.00;55.00;37.00
69746;PMS7003;57018;50.278;19.134;2022-12-04T02:26:04;74.00;54.00;36.00
69746;PMS7003;57018;50.278;19.134;2022-12-04T02:28:54;68.50;57.00;37.50
69746;PMS7003;57018;50.278;19.134;2022-12-04T02:31:29;71.50;55.00;35.50
69746;PMS7003;57018;50.278;19.134;2022-12-04T02:34:03;71.50;59.00;37.50
69746;PMS7003;57018;50.278;19.134;2022-12-04T02:36:40;73.00;59.50;37.50
69746;PMS7003;57018;50.278;19.134;2022-12-04T02:39:16;72.00;58.00;35.00
69746;PMS7003;57018;50.278;19.134;2022-12-04T02:44:22;75.00;58.00;35.50
69746;PMS7003;57018;50.278;19.134;2022-12-04T02:46:56;77.00;59.00;38.00
69746;PMS7003;57018;50.278;19.134;2022-12-04T02:52:03;70.00;57.00;37.00
69746;PMS7003;57018;50.278;19.134;2022-12-04T02:54:39;72.50;56.00;33.50
69746;PMS7003;57018;50.278;19.134;2022-12-04T02:57:15;68.50;52.50;31.50
69746;PMS7003;57018;50.278;19.134;2022-12-04T02:59:49;73.00;59.00;38.00
69746;PMS7003;57018;50.278;19.134;2022-12-04T03:02:24;67.67;51.67;34.67
69746;PMS7003;57018;50.278;19.134;2022-12-04T03:04:59;69.00;55.00;36.00
69746;PMS7003;57018;50.278;19.134;2022-12-04T03:07:33;66.00;55.00;36.00
69746;PMS7003;57018;50.278;19.134;2022-12-04T03:10:09;74.00;57.00;36.00
69746;PMS7003;57018;50.278;19.134;2022-12-04T03:12:43;65.00;55.00;34.00
69746;PMS7003;57018;50.278;19.134;2022-12-04T03:15:18;67.00;53.00;34.00
69746;PMS7003;57018;50.278;19.134;2022-12-04T03:17:54;73.00;57.00;35.50
69746;PMS7003;57018;50.278;19.134;2022-12-04T03:20:28;69.00;54.00;35.00
69746;PMS7003;57018;50.278;19.134;2022-12-04T03:23:02;80.00;56.00;34.00
69746;PMS7003;57018;50.278;19.134;2022-12-04T03:25:38;67.00;51.50;34.00
69746;PMS7003;57018;50.278;19.134;2022-12-04T03:28:24;68.00;54.50;36.50
69746;PMS7003;57018;50.278;19.134;2022-12-04T03:31:01;63.00;52.00;32.00
69746;PMS7003;57018;50.278;19.134;2022-12-04T03:33:36;69.67;55.00;35.00
69746;PMS7003;57018;50.278;19.134;2022-12-04T03:38:42;73.33;57.00;35.00
69746;PMS7003;57018;50.278;19.134;2022-12-04T03:41:19;66.50;53.00;34.00
69746;PMS7003;57018;50.278;19.134;2022-12-04T03:43:56;75.50;59.50;37.00
69746;PMS7003;57018;50.278;19.134;2022-12-04T03:46:33;67.00;55.00;35.00
69746;PMS7003;57018;50.278;19.134;2022-12-04T03:49:09;72.50;55.50;35.50
69746;PMS7003;57018;50.278;19.134;2022-12-04T03:51:43;62.00;48.00;33.00
69746;PMS7003;57018;50.278;19.134;2022-12-04T03:54:21;68.00;49.00;31.00
69746;PMS7003;57018;50.278;19.134;2022-12-04T03:56:58;70.00;57.50;35.50
69746;PMS7003;57018;50.278;19.134;2022-12-04T03:59:33;70.00;53.00;33.00
69746;PMS7003;57018;50.278;19.134;2022-12-04T04:02:09;64.50;52.50;31.50
69746;PMS7003;57018;50.278;19.134;2022-12-04T04:04:46;65.00;49.00;30.00
69746;PMS7003;57018;50.278;19.134;2022-12-04T04:07:20;66.00;53.00;33.00
69746;PMS7003;57018;50.278;19.134;2022-12-04T04:09:55;65.00;54.00;33.00
69746;PMS7003;57018;50.278;19.134;2022-12-04T04:12:31;59.00;49.00;32.00
69746;PMS7003;57018;50.278;19.134;2022-12-04T04:15:07;62.00;51.00;32.50
69746;PMS7003;57018;50.278;19.134;2022-12-04T04:17:57;65.50;52.50;33.00
69746;PMS7003;57018;50.278;19.134;2022-12-04T04:20:46;71.00;53.50;34.00
69746;PMS7003;57018;50.278;19.134;2022-12-04T04:23:38;70.00;53.00;34.00
69746;PMS7003;57018;50.278;19.134;2022-12-04T04:26:30;66.00;52.00;33.00
69746;PMS7003;57018;50.278;19.134;2022-12-04T04:29:03;62.00;49.00;34.00
69746;PMS7003;57018;50.278;19.134;2022-12-04T04:31:35;67.50;50.50;33.00
69746;PMS7003;57018;50.278;19.134;2022-12-04T04:34:11;62.00;48.00;32.00
69746;PMS7003;57018;50.278;19.134;2022-12-04T04:36:52;61.00;49.00;31.00
69746;PMS7003;57018;50.278;19.134;2022-12-04T04:39:29;67.00;53.50;31.00
69746;PMS7003;57018;50.278;19.134;2022-12-04T04:42:03;64.50;50.50;31.00
69746;PMS7003;57018;50.278;19.134;2022-12-04T04:44:40;46.50;41.50;31.50
69746;PMS7003;57018;50.278;19.134;2022-12-04T04:47:15;52.00;46.50;30.50
69746;PMS7003;57018;50.278;19.134;2022-12-04T04:49:53;54.00;44.00;27.00
69746;PMS7003;57018;50.278;19.134;2022-12-04T04:52:25;62.00;48.00;31.50
69746;PMS7003;57018;50.278;19.134;2022-12-04T04:54:57;63.00;48.00;31.00
69746;PMS7003;57018;50.278;19.134;2022-12-04T04:57:30;55.50;48.50;32.00
69746;PMS7003;57018;50.278;19.134;2022-12-04T05:00:02;53.00;41.00;24.00
69746;PMS7003;57018;50.278;19.134;2022-12-04T05:02:35;57.00;46.00;31.00
69746;PMS7003;57018;50.278;19.134;2022-12-04T05:05:06;57.00;45.00;29.00
69746;PMS7003;57018;50.278;19.134;2022-12-04T05:07:36;56.00;42.50;29.00
69746;PMS7003;57018;50.278;19.134;2022-12-04T05:10:08;40.00;34.00;24.00
69746;PMS7003;57018;50.278;19.134;2022-12-04T05:12:39;57.00;45.00;28.00
69746;PMS7003;57018;50.278;19.134;2022-12-04T05:15:09;50.00;44.00;28.00
69746;PMS7003;57018;50.278;19.134;2022-12-04T05:17:39;41.00;34.00;19.00
69746;PMS7003;57018;50.278;19.134;2022-12-04T05:20:10;62.00;49.00;29.50
69746;PMS7003;57018;50.278;19.134;2022-12-04T05:22:40;61.00;47.00;31.00
69746;PMS7003;57018;50.278;19.134;2022-12-04T05:25:10;48.00;41.00;24.00
69746;PMS7003;57018;50.278;19.134;2022-12-04T05:27:40;44.00;38.00;27.00
69746;PMS7003;57018;50.278;19.134;2022-12-04T05:32:38;47.00;44.00;29.00
69746;PMS7003;57018;50.278;19.134;2022-12-04T05:35:09;48.00;41.00;28.00
69746;PMS7003;57018;50.278;19.134;2022-12-04T05:42:36;46.00;40.00;23.50
69746;PMS7003;57018;50.278;19.134;2022-12-04T05:45:07;52.50;44.00;28.00
69746;PMS7003;57018;50.278;19.134;2022-12-04T05:47:38;56.00;43.00;27.00
69746;PMS7003;57018;50.278;19.134;2022-12-04T05:50:11;47.00;41.00;24.00
69746;PMS7003;57018;50.278;19.134;2022-12-04T05:52:41;38.00;35.00;26.00
69746;PMS7003;57018;50.278;19.134;2022-12-04T05:55:11;52.00;42.00;27.00
69746;PMS7003;57018;50.278;19.134;2022-12-04T05:57:40;54.00;44.00;27.00
69746;PMS7003;57018;50.278;19.134;2022-12-04T06:00:12;51.50;37.50;24.50
69746;PMS7003;57018;50.278;19.134;2022-12-04T06:02:43;50.00;44.00;26.00
69746;PMS7003;57018;50.278;19.134;2022-12-04T06:05:14;47.00;42.00;26.00
69746;PMS7003;57018;50.278;19.134;2022-12-04T06:07:44;49.00;43.00;25.00
69746;PMS7003;57018;50.278;19.134;2022-12-04T06:10:14;48.00;43.00;27.50
69746;PMS7003;57018;50.278;19.134;2022-12-04T06:12:44;41.00;41.00;27.00
69746;PMS7003;57018;50.278;19.134;2022-12-04T06:15:14;47.50;40.00;27.00
69746;PMS7003;57018;50.278;19.134;2022-12-04T06:17:44;45.00;38.00;26.00
69746;PMS7003;57018;50.278;19.134;2022-12-04T06:20:14;47.00;43.00;24.00
69746;PMS7003;57018;50.278;19.134;2022-12-04T06:22:44;49.00;41.50;27.50
69746;PMS7003;57018;50.278;19.134;2022-12-04T06:25:14;27.00;16.50;7.00
69746;PMS7003;57018;50.278;19.134;2022-12-04T06:27:44;48.00;43.00;27.00
69746;PMS7003;57018;50.278;19.134;2022-12-04T06:30:14;50.00;42.00;28.00
69746;PMS7003;57018;50.278;19.134;2022-12-04T06:35:12;53.00;41.00;26.50
69746;PMS7003;57018;50.278;19.134;2022-12-04T06:37:42;61.00;47.00;30.00
69746;PMS7003;57018;50.278;19.134;2022-12-04T06:40:12;52.00;42.00;28.50
69746;PMS7003;57018;50.278;19.134;2022-12-04T06:42:42;46.00;42.50;25.50
69746;PMS7003;57018;50.278;19.134;2022-12-04T06:45:12;47.00;40.00;24.00
69746;PMS7003;57018;50.278;19.134;2022-12-04T06:50:11;43.00;39.50;26.50
69746;PMS7003;57018;50.278;19.134;2022-12-04T06:52:41;49.50;38.50;27.00
69746;PMS7003;57018;50.278;19.134;2022-12-04T06:55:11;52.50;43.00;27.00
69746;PMS7003;57018;50.278;19.134;2022-12-04T06:57:41;41.00;39.00;27.00
69746;PMS7003;57018;50.278;19.134;2022-12-04T07:00:12;47.00;40.00;27.00
69746;PMS7003;57018;50.278;19.134;2022-12-04T07:02:43;42.00;41.00;24.00
69746;PMS7003;57018;50.278;19.134;2022-12-04T07:05:13;41.00;35.00;22.00
69746;PMS7003;57018;50.278;19.134;2022-12-04T07:07:43;41.00;38.00;23.00
69746;PMS7003;57018;50.278;19.134;2022-12-04T07:10:12;41.00;37.00;23.00
69746;PMS7003;57018;50.278;19.134;2022-12-04T07:12:43;37.00;33.00;24.00
69746;PMS7003;57018;50.278;19.134;2022-12-04T07:15:13;43.50;38.00;25.50
69746;PMS7003;57018;50.278;19.134;2022-12-04T07:17:43;50.00;43.00;26.00
69746;PMS7003;57018;50.278;19.134;2022-12-04T07:20:14;44.00;39.00;26.00
69746;PMS7003;57018;50.278;19.134;2022-12-04T07:22:44;46.50;40.00;26.00
69746;PMS7003;57018;50.278;19.134;2022-12-04T07:25:13;57.00;44.00;26.00
69746;PMS7003;57018;50.278;19.134;2022-12-04T07:27:44;50.00;42.00;26.00
69746;PMS7003;57018;50.278;19.134;2022-12-04T07:30:14;47.00;41.00;25.00
69746;PMS7003;57018;50.278;19.134;2022-12-04T07:32:44;46.00;41.00;25.00
69746;PMS7003;57018;50.278;19.134;2022-12-04T07:35:14;47.00;39.00;27.00
69746;PMS7003;57018;50.278;19.134;2022-12-04T07:37:44;54.00;41.50;26.00
69746;PMS7003;57018;50.278;19.134;2022-12-04T07:40:14;52.50;41.00;26.50
69746;PMS7003;57018;50.278;19.134;2022-12-04T07:42:44;51.00;39.00;26.00
69746;PMS7003;57018;50.278;19.134;2022-12-04T07:45:14;41.00;40.00;26.00
69746;PMS7003;57018;50.278;19.134;2022-12-04T07:50:13;39.00;35.00;24.00
69746;PMS7003;57018;50.278;19.134;2022-12-04T07:52:43;46.00;42.50;27.50
69746;PMS7003;57018;50.278;19.134;2022-12-04T07:55:13;53.00;43.00;27.00
69746;PMS7003;57018;50.278;19.134;2022-12-04T07:57:43;46.00;41.00;26.00
69746;PMS7003;57018;50.278;19.134;2022-12-04T08:00:14;50.00;43.00;26.00
69746;PMS7003;57018;50.278;19.134;2022-12-04T08:02:45;57.00;44.00;26.00
69746;PMS7003;57018;50.278;19.134;2022-12-04T08:05:16;54.33;42.67;28.00
69746;PMS7003;57018;50.278;19.134;2022-12-04T08:07:47;55.00;42.00;29.00
69746;PMS7003;57018;50.278;19.134;2022-12-04T08:10:17;56.00;45.00;29.00
69746;PMS7003;57018;50.278;19.134;2022-12-04T08:12:47;50.00;40.00;26.00
69746;PMS7003;57018;50.278;19.134;2022-12-04T08:15:17;49.00;42.00;29.00
69746;PMS7003;57018;50.278;19.134;2022-12-04T08:17:47;50.00;42.00;26.50
69746;PMS7003;57018;50.278;19.134;2022-12-04T08:20:16;60.00;46.00;28.00
69746;PMS7003;57018;50.278;19.134;2022-12-04T08:22:47;36.00;31.00;23.00
69746;PMS7003;57018;50.278;19.134;2022-12-04T08:27:45;35.00;33.50;21.50
69746;PMS7003;57018;50.278;19.134;2022-12-04T08:30:16;49.00;41.00;27.00
69746;PMS7003;57018;50.278;19.134;2022-12-04T08:32:46;22.50;19.00;1.50
69746;PMS7003;57018;50.278;19.134;2022-12-04T08:35:16;40.50;37.00;23.00
69746;PMS7003;57018;50.278;19.134;2022-12-04T08:40:15;36.00;33.00;26.00
69746;PMS7003;57018;50.278;19.134;2022-12-04T08:42:45;42.00;35.00;22.50
69746;PMS7003;57018;50.278;19.134;2022-12-04T08:45:15;47.00;39.00;23.00
69746;PMS7003;57018;50.278;19.134;2022-12-04T08:47:45;48.00;41.00;26.00
69746;PMS7003;57018;50.278;19.134;2022-12-04T08:50:15;49.50;38.50;25.50
69746;PMS7003;57018;50.278;19.134;2022-12-04T08:52:45;43.00;35.00;22.00
69746;PMS7003;57018;50.278;19.134;2022-12-04T08:55:15;53.00;42.00;25.50
69746;PMS7003;57018;50.278;19.134;2022-12-04T08:57:45;45.00;40.00;26.00
69746;PMS7003;57018;50.278;19.134;2022-12-04T09:00:15;46.00;38.00;24.50
69746;PMS7003;57018;50.278;19.134;2022-12-04T09:02:51;39.50;37.00;26.00
69746;PMS7003;57018;50.278;19.134;2022-12-04T09:05:23;54.00;39.00;23.50
69746;PMS7003;57018;50.278;19.134;2022-12-04T09:07:53;41.50;39.00;26.00
69746;PMS7003;57018;50.278;19.134;2022-12-04T09:10:23;40.00;38.00;24.00
69746;PMS7003;57018;50.278;19.134;2022-12-04T09:12:53;42.00;38.00;25.00
69746;PMS7003;57018;50.278;19.134;2022-12-04T09:15:23;40.50;38.00;25.00
69746;PMS7003;57018;50.278;19.134;2022-12-04T09:17:53;54.00;40.00;28.00
69746;PMS7003;57018;50.278;19.134;2022-12-04T09:20:22;15.50;15.50;9.00
69746;PMS7003;57018;50.278;19.134;2022-12-04T09:25:21;43.00;39.00;22.00
69746;PMS7003;57018;50.278;19.134;2022-12-04T09:27:51;49.50;39.00;25.50
69746;PMS7003;57018;50.278;19.134;2022-12-04T09:30:21;54.50;41.50;27.50
69746;PMS7003;57018;50.278;19.134;2022-12-04T09:32:51;48.00;35.00;25.00
69746;PMS7003;57018;50.278;19.134;2022-12-04T09:35:21;45.00;40.00;25.50
69746;PMS7003;57018;50.278;19.134;2022-12-04T09:37:51;49.00;38.00;25.00
69746;PMS7003;57018;50.278;19.134;2022-12-04T09:45:26;38.50;31.00;20.00
69746;PMS7003;57018;50.278;19.134;2022-12-04T09:48:09;45.00;40.00;26.00
69746;PMS7003;57018;50.278;19.134;2022-12-04T09:50:47;48.00;42.00;27.00
69746;PMS7003;57018;50.278;19.134;2022-12-04T09:53:31;53.00;42.00;26.00
69746;PMS7003;57018;50.278;19.134;2022-12-04T09:56:10;51.00;41.00;29.00
69746;PMS7003;57018;50.278;19.134;2022-12-04T09:58:46;54.25;40.75;27.25
69746;PMS7003;57018;50.278;19.134;2022-12-04T10:01:24;45.00;39.00;25.00
69746;PMS7003;57018;50.278;19.134;2022-12-04T10:03:59;37.00;33.00;23.00
69746;PMS7003;57018;50.278;19.134;2022-12-04T10:06:30;47.00;38.00;24.50
69746;PMS7003;57018;50.278;19.134;2022-12-04T10:09:09;51.67;40.00;25.00
69746;PMS7003;57018;50.278;19.134;2022-12-04T10:11:51;39.00;32.00;20.00
69746;PMS7003;57018;50.278;19.134;2022-12-04T10:14:38;45.00;41.00;25.00
69746;PMS7003;57018;50.278;19.134;2022-12-04T10:17:24;52.00;41.67;27.67
69746;PMS7003;57018;50.278;19.134;2022-12-04T10:20:05;46.00;40.00;27.00
69746;PMS7003;57018;50.278;19.134;2022-12-04T10:22:47;41.50;39.50;26.00
69746;PMS7003;57018;50.278;19.134;2022-12-04T10:25:28;47.00;40.00;27.00
69746;PMS7003;57018;50.278;19.134;2022-12-04T10:28:00;51.00;41.00;27.00
69746;PMS7003;57018;50.278;19.134;2022-12-04T10:30:37;44.00;39.00;27.00
69746;PMS7003;57018;50.278;19.134;2022-12-04T10:33:12;45.00;38.50;25.00
69746;PMS7003;57018;50.278;19.134;2022-12-04T10:35:49;48.50;40.50;27.50
69746;PMS7003;57018;50.278;19.134;2022-12-04T10:40:56;44.00;36.00;21.00
69746;PMS7003;57018;50.278;19.134;2022-12-04T10:43:32;46.50;40.00;27.00
69746;PMS7003;57018;50.278;19.134;2022-12-04T10:48:40;48.00;39.50;24.50
69746;PMS7003;57018;50.278;19.134;2022-12-04T10:51:16;43.00;37.00;24.00
69746;PMS7003;57018;50.278;19.134;2022-12-04T10:53:48;47.00;39.50;26.00
69746;PMS7003;57018;50.278;19.134;2022-12-04T10:56:19;44.00;39.00;24.00
69746;PMS7003;57018;50.278;19.134;2022-12-04T11:01:27;48.00;40.00;24.00
69746;PMS7003;57018;50.278;19.134;2022-12-04T11:04:00;38.00;32.00;24.00
69746;PMS7003;57018;50.278;19.134;2022-12-04T11:06:32;52.00;41.00;27.00
69746;PMS7003;57018;50.278;19.134;2022-12-04T11:11:32;45.00;37.00;24.00
69746;PMS7003;57018;50.278;19.134;2022-12-04T11:14:06;48.00;41.00;27.00
69746;PMS7003;57018;50.278;19.134;2022-12-04T11:16:42;51.00;33.00;23.00
69746;PMS7003;57018;50.278;19.134;2022-12-04T11:19:19;51.50;42.50;29.00
69746;PMS7003;57018;50.278;19.134;2022-12-04T11:21:50;35.00;29.00;19.00
69746;PMS7003;57018;50.278;19.134;2022-12-04T11:24:24;49.00;40.00;29.00
69746;PMS7003;57018;50.278;19.134;2022-12-04T11:26:57;52.00;41.50;25.50
69746;PMS7003;57018;50.278;19.134;2022-12-04T11:31:59;53.00;45.00;28.00
69746;PMS7003;57018;50.278;19.134;2022-12-04T11:34:31;55.50;42.50;28.50
69746;PMS7003;57018;50.278;19.134;2022-12-04T11:37:05;35.50;28.50;16.50
69746;PMS7003;57018;50.278;19.134;2022-12-04T11:39:48;51.00;40.00;25.00
69746;PMS7003;57018;50.278;19.134;2022-12-04T11:42:23;53.00;42.00;28.00
69746;PMS7003;57018;50.278;19.134;2022-12-04T11:44:54;44.00;40.00;25.00
69746;PMS7003;57018;50.278;19.134;2022-12-04T11:47:27;42.50;38.00;25.00
69746;PMS7003;57018;50.278;19.134;2022-12-04T11:49:59;55.00;43.00;25.00
69746;PMS7003;57018;50.278;19.134;2022-12-04T11:52:50;56.00;45.00;27.00
69746;PMS7003;57018;50.278;19.134;2022-12-04T11:55:34;50.00;41.00;25.00
69746;PMS7003;57018;50.278;19.134;2022-12-04T11:58:20;55.00;42.00;27.00
69746;PMS7003;57018;50.278;19.134;2022-12-04T12:01:08;54.00;41.00;25.00
69746;PMS7003;57018;50.278;19.134;2022-12-04T12:03:55;33.00;30.00;23.00
69746;PMS7003;57018;50.278;19.134;2022-12-04T12:06:43;48.00;40.00;25.00
69746;PMS7003;57018;50.278;19.134;2022-12-04T12:09:27;47.50;38.50;24.00
69746;PMS7003;57018;50.278;19.134;2022-12-04T12:12:07;48.50;42.00;28.00
69746;PMS7003;57018;50.278;19.134;2022-12-04T12:17:16;42.00;37.00;25.00
69746;PMS7003;57018;50.278;19.134;2022-12-04T12:20:02;52.00;41.00;27.00
69746;PMS7003;57018;50.278;19.134;2022-12-04T12:22:47;49.50;41.00;27.00
69746;PMS7003;57018;50.278;19.134;2022-12-04T12:25:31;44.00;39.00;26.00
69746;PMS7003;57018;50.278;19.134;2022-12-04T12:28:12;43.00;39.00;26.00
69746;PMS7003;57018;50.278;19.134;2022-12-04T12:30:58;50.00;39.00;26.00
69746;PMS7003;57018;50.278;19.134;2022-12-04T12:33:42;47.00;41.00;25.00
69746;PMS7003;57018;50.278;19.134;2022-12-04T12:36:18;49.50;44.00;28.00
69746;PMS7003;57018;50.278;19.134;2022-12-04T12:38:53;49.00;41.00;27.00
69746;PMS7003;57018;50.278;19.134;2022-12-04T12:41:28;47.00;37.00;26.50
69746;PMS7003;57018;50.278;19.134;2022-12-04T12:44:03;54.00;43.50;28.00
69746;PMS7003;57018;50.278;19.134;2022-12-04T12:46:40;52.50;42.00;28.00
69746;PMS7003;57018;50.278;19.134;2022-12-04T12:49:18;55.00;46.00;28.00
69746;PMS7003;57018;50.278;19.134;2022-12-04T12:51:53;60.00;46.00;30.00
69746;PMS7003;57018;50.278;19.134;2022-12-04T12:54:29;60.00;46.00;30.00
69746;PMS7003;57018;50.278;19.134;2022-12-04T12:57:09;43.00;36.50;27.50
69746;PMS7003;57018;50.278;19.134;2022-12-04T12:59:44;38.50;30.00;15.50
69746;PMS7003;57018;50.278;19.134;2022-12-04T13:02:21;50.00;44.00;26.00
69746;PMS7003;57018;50.278;19.134;2022-12-04T13:04:54;51.50;43.50;28.00
69746;PMS7003;57018;50.278;19.134;2022-12-04T13:07:28;60.00;47.00;29.00
69746;PMS7003;57018;50.278;19.134;2022-12-04T13:10:10;56.50;44.00;27.50
69746;PMS7003;57018;50.278;19.134;2022-12-04T13:12:45;57.50;46.00;28.00
69746;PMS7003;57018;50.278;19.134;2022-12-04T13:15:19;50.00;42.00;29.00
69746;PMS7003;57018;50.278;19.134;2022-12-04T13:20:23;61.00;48.00;31.00
69746;PMS7003;57018;50.278;19.134;2022-12-04T13:25:38;57.00;45.50;30.00
69746;PMS7003;57018;50.278;19.134;2022-12-04T13:28:18;60.00;47.00;28.00
69746;PMS7003;57018;50.278;19.134;2022-12-04T13:30:59;61.00;49.00;31.00
69746;PMS7003;57018;50.278;19.134;2022-12-04T13:42:43;62.00;50.00;31.00
69746;PMS7003;57018;50.278;19.134;2022-12-04T13:45:22;60.50;44.50;28.00
69746;PMS7003;57018;50.278;19.134;2022-12-04T13:47:57;60.50;45.50;26.00
69746;PMS7003;57018;50.278;19.134;2022-12-04T13:50:29;65.00;50.00;30.00
69746;PMS7003;57018;50.278;19.134;2022-12-04T13:53:01;67.00;52.00;31.00
69746;PMS7003;57018;50.278;19.134;2022-12-04T13:55:32;62.00;50.00;30.00
69746;PMS7003;57018;50.278;19.134;2022-12-04T14:00:59;62.00;48.50;31.00
69746;PMS7003;57018;50.278;19.134;2022-12-04T14:03:43;59.33;46.33;29.33
69746;PMS7003;57018;50.278;19.134;2022-12-04T14:06:21;62.00;50.00;32.00
69746;PMS7003;57018;50.278;19.134;2022-12-04T14:08:55;66.50;52.50;30.50
69746;PMS7003;57018;50.278;19.134;2022-12-04T14:11:29;62.00;49.00;32.00
69746;PMS7003;57018;50.278;19.134;2022-12-04T14:16:48;55.50;44.00;30.00
69746;PMS7003;57018;50.278;19.134;2022-12-04T14:22:23;60.00;45.00;32.00
69746;PMS7003;57018;50.278;19.134;2022-12-04T14:24:54;61.50;50.00;32.00
69746;PMS7003;57018;50.278;19.134;2022-12-04T14:27:41;66.00;50.50;29.50
69746;PMS7003;57018;50.278;19.134;2022-12-04T14:30:16;56.50;45.50;31.00
69746;PMS7003;57018;50.278;19.134;2022-12-04T14:32:48;67.00;51.00;32.00
69746;PMS7003;57018;50.278;19.134;2022-12-04T14:35:21;64.00;52.00;35.00
69746;PMS7003;57018;50.278;19.134;2022-12-04T14:37:54;71.00;57.00;34.00
69746;PMS7003;57018;50.278;19.134;2022-12-04T14:40:26;66.00;55.00;35.00
69746;PMS7003;57018;50.278;19.134;2022-12-04T14:43:01;74.00;55.00;36.00
69746;PMS7003;57018;50.278;19.134;2022-12-04T14:45:34;66.00;51.00;31.00
69746;PMS7003;57018;50.278;19.134;2022-12-04T14:51:06;55.50;47.00;30.00
69746;PMS7003;57018;50.278;19.134;2022-12-04T14:53:45;67.00;54.00;33.00
69746;PMS7003;57018;50.278;19.134;2022-12-04T14:56:26;64.50;51.50;31.50
69746;PMS7003;57018;50.278;19.134;2022-12-04T14:59:17;65.00;49.00;30.00
69746;PMS7003;57018;50.278;19.134;2022-12-04T15:01:50;67.00;53.00;35.00
69746;PMS7003;57018;50.278;19.134;2022-12-04T15:04:22;71.00;54.00;33.00
69746;PMS7003;57018;50.278;19.134;2022-12-04T15:06:55;60.00;50.00;30.00
69746;PMS7003;57018;50.278;19.134;2022-12-04T15:12:15;66.00;52.00;31.00
69746;PMS7003;57018;50.278;19.134;2022-12-04T15:15:03;68.00;53.00;31.00
69746;PMS7003;57018;50.278;19.134;2022-12-04T15:17:39;69.00;54.00;34.00
69746;PMS7003;57018;50.278;19.134;2022-12-04T15:20:12;62.00;50.00;31.00
69746;PMS7003;57018;50.278;19.134;2022-12-04T15:22:46;71.00;55.50;34.00
69746;PMS7003;57018;50.278;19.134;2022-12-04T15:25:18;69.50;55.00;34.00
69746;PMS7003;57018;50.278;19.134;2022-12-04T15:27:52;64.00;51.00;34.00
69746;PMS7003;57018;50.278;19.134;2022-12-04T15:30:28;66.00;53.00;34.00
69746;PMS7003;57018;50.278;19.134;2022-12-04T15:33:02;68.00;55.00;34.00
69746;PMS7003;57018;50.278;19.134;2022-12-04T15:35:33;64.00;53.00;35.00
69746;PMS7003;57018;50.278;19.134;2022-12-04T15:38:04;72.00;57.00;38.00
69746;PMS7003;57018;50.278;19.134;2022-12-04T15:43:15;69.00;55.00;36.00
69746;PMS7003;57018;50.278;19.134;2022-12-04T15:53:31;59.00;47.00;30.00